sensor_id;sensor_type;location;lat;lon;timestamp;pressure;altitude;pressure_sealevel;temperature;humidity
61026;BME280;46911;32.650;-16.902;2022-12-29T00:00:07;102445.81;;;14.15;41.43
61026;BME280;46911;32.650;-16.902;2022-12-29T00:02:18;102450.06;;;14.19;40.88
61026;BME280;46911;32.650;-16.902;2022-12-29T00:04:21;102434.63;;;14.06;41.40
61026;BME280;46911;32.650;-16.902;2022-12-29T00:06:23;102424.31;;;13.99;41.61
61026;BME280;46911;32.650;-16.902;2022-12-29T00:08:23;102435.75;;;14.02;41.64
61026;BME280;46911;32.650;-16.902;2022-12-29T00:10:41;102437.81;;;13.97;41.75
61026;BME280;46911;32.650;-16.902;2022-12-29T00:12:42;102434.81;;;14.03;41.21
61026;BME280;46911;32.650;-16.902;2022-12-29T00:15:18;102452.38;;;14.09;41.31
61026;BME280;46911;32.650;-16.902;2022-12-29T00:17:37;102436.09;;;13.96;41.85
61026;BME280;46911;32.650;-16.902;2022-12-29T00:19:40;102439.88;;;13.92;42.14
61026;BME280;46911;32.650;-16.902;2022-12-29T00:21:59;102452.91;;;14.00;41.37
61026;BME280;46911;32.650;-16.902;2022-12-29T00:24:21;102432.97;;;13.88;41.53
61026;BME280;46911;32.650;-16.902;2022-12-29T00:26:28;102444.66;;;13.87;41.58
61026;BME280;46911;32.650;-16.902;2022-12-29T00:28:50;102443.59;;;13.73;42.49
61026;BME280;46911;32.650;-16.902;2022-12-29T00:31:14;102450.53;;;13.78;42.79
61026;BME280;46911;32.650;-16.902;2022-12-29T00:33:34;102438.47;;;13.69;42.15
61026;BME280;46911;32.650;-16.902;2022-12-29T00:35:57;102458.41;;;13.81;41.93
61026;BME280;46911;32.650;-16.902;2022-12-29T00:38:03;102465.00;;;13.91;41.42
61026;BME280;46911;32.650;-16.902;2022-12-29T00:40:24;102458.09;;;13.87;41.61
61026;BME280;46911;32.650;-16.902;2022-12-29T00:42:43;102459.16;;;14.00;41.37
61026;BME280;46911;32.650;-16.902;2022-12-29T00:45:07;102443.09;;;13.99;41.54
61026;BME280;46911;32.650;-16.902;2022-12-29T00:47:08;102447.28;;;14.04;41.29
61026;BME280;46911;32.650;-16.902;2022-12-29T00:49:13;102435.66;;;14.04;41.33
61026;BME280;46911;32.650;-16.902;2022-12-29T00:51:32;102432.13;;;14.03;41.54
61026;BME280;46911;32.650;-16.902;2022-12-29T00:53:33;102439.91;;;14.08;41.84
61026;BME280;46911;32.650;-16.902;2022-12-29T00:55:37;102428.84;;;13.98;41.74
61026;BME280;46911;32.650;-16.902;2022-12-29T00:57:40;102441.13;;;14.02;42.19
61026;BME280;46911;32.650;-16.902;2022-12-29T00:59:44;102427.38;;;13.93;42.50
61026;BME280;46911;32.650;-16.902;2022-12-29T01:01:51;102422.84;;;13.93;42.97
61026;BME280;46911;32.650;-16.902;2022-12-29T01:03:53;102426.25;;;13.97;43.61
61026;BME280;46911;32.650;-16.902;2022-12-29T01:06:00;102429.00;;;13.95;43.68
61026;BME280;46911;32.650;-16.902;2022-12-29T01:08:01;102421.19;;;13.90;43.39
61026;BME280;46911;32.650;-16.902;2022-12-29T01:10:05;102419.03;;;13.97;43.08
61026;BME280;46911;32.650;-16.902;2022-12-29T01:12:12;102409.19;;;13.98;43.26
61026;BME280;46911;32.650;-16.902;2022-12-29T01:14:13;102399.66;;;13.92;42.87
61026;BME280;46911;32.650;-16.902;2022-12-29T01:16:15;102400.19;;;13.99;43.18
61026;BME280;46911;32.650;-16.902;2022-12-29T01:18:18;102414.22;;;14.04;43.14
61026;BME280;46911;32.650;-16.902;2022-12-29T01:20:24;102422.16;;;14.05;43.44
61026;BME280;46911;32.650;-16.902;2022-12-29T01:22:28;102409.44;;;14.09;43.30
61026;BME280;46911;32.650;-16.902;2022-12-29T01:24:29;102407.66;;;14.10;43.24
61026;BME280;46911;32.650;-16.902;2022-12-29T01:26:33;102391.97;;;14.02;42.70
61026;BME280;46911;32.650;-16.902;2022-12-29T01:28:36;102376.56;;;14.05;42.71
61026;BME280;46911;32.650;-16.902;2022-12-29T01:30:40;102398.22;;;14.18;42.36
61026;BME280;46911;32.650;-16.902;2022-12-29T01:32:41;102386.88;;;14.13;41.88
61026;BME280;46911;32.650;-16.902;2022-12-29T01:34:42;102379.75;;;14.12;41.53
61026;BME280;46911;32.650;-16.902;2022-12-29T01:36:48;102380.78;;;14.26;40.53
61026;BME280;46911;32.650;-16.902;2022-12-29T01:38:50;102387.38;;;14.20;40.88
61026;BME280;46911;32.650;-16.902;2022-12-29T01:40:51;102372.69;;;14.11;40.51
61026;BME280;46911;32.650;-16.902;2022-12-29T01:42:52;102383.03;;;14.17;40.60
61026;BME280;46911;32.650;-16.902;2022-12-29T01:46:54;102382.09;;;14.18;41.32
61026;BME280;46911;32.650;-16.902;2022-12-29T01:49:02;102389.91;;;14.23;41.93
61026;BME280;46911;32.650;-16.902;2022-12-29T01:51:07;102388.25;;;14.20;42.43
61026;BME280;46911;32.650;-16.902;2022-12-29T01:53:11;102387.81;;;14.12;42.96
61026;BME280;46911;32.650;-16.902;2022-12-29T01:55:14;102392.31;;;14.12;43.42
61026;BME280;46911;32.650;-16.902;2022-12-29T01:57:22;102374.31;;;13.98;43.78
61026;BME280;46911;32.650;-16.902;2022-12-29T01:59:29;102389.28;;;14.02;44.19
61026;BME280;46911;32.650;-16.902;2022-12-29T02:01:35;102392.50;;;14.09;44.49
61026;BME280;46911;32.650;-16.902;2022-12-29T02:03:36;102371.38;;;14.02;44.38
61026;BME280;46911;32.650;-16.902;2022-12-29T02:05:57;102376.22;;;13.96;44.42
61026;BME280;46911;32.650;-16.902;2022-12-29T02:08:02;102392.22;;;13.97;44.46
61026;BME280;46911;32.650;-16.902;2022-12-29T02:10:03;102382.78;;;13.90;44.30
61026;BME280;46911;32.650;-16.902;2022-12-29T02:12:07;102377.44;;;13.90;43.31
61026;BME280;46911;32.650;-16.902;2022-12-29T02:14:10;102373.19;;;13.86;43.04
61026;BME280;46911;32.650;-16.902;2022-12-29T02:21:04;102376.19;;;13.80;43.93
61026;BME280;46911;32.650;-16.902;2022-12-29T02:32:51;102396.09;;;13.76;45.10
61026;BME280;46911;32.650;-16.902;2022-12-29T02:35:20;102387.28;;;13.73;45.03
61026;BME280;46911;32.650;-16.902;2022-12-29T02:37:30;102383.19;;;13.66;45.21
61026;BME280;46911;32.650;-16.902;2022-12-29T02:50:13;102377.69;;;13.52;44.49
61026;BME280;46911;32.650;-16.902;2022-12-29T02:52:10;102357.78;;;13.40;44.81
61026;BME280;46911;32.650;-16.902;2022-12-29T02:54:17;102367.63;;;13.39;44.64
61026;BME280;46911;32.650;-16.902;2022-12-29T02:56:39;102354.41;;;13.36;44.82
61026;BME280;46911;32.650;-16.902;2022-12-29T02:58:45;102337.06;;;13.26;43.72
61026;BME280;46911;32.650;-16.902;2022-12-29T03:12:29;102359.91;;;13.51;38.69
61026;BME280;46911;32.650;-16.902;2022-12-29T03:14:59;102347.84;;;13.42;38.73
61026;BME280;46911;32.650;-16.902;2022-12-29T03:20:03;102356.44;;;13.49;38.95
61026;BME280;46911;32.650;-16.902;2022-12-29T03:22:17;102364.19;;;13.53;39.31
61026;BME280;46911;32.650;-16.902;2022-12-29T03:24:41;102366.28;;;13.48;39.30
61026;BME280;46911;32.650;-16.902;2022-12-29T03:26:47;102358.47;;;13.44;39.48
61026;BME280;46911;32.650;-16.902;2022-12-29T03:28:52;102344.69;;;13.34;39.81
61026;BME280;46911;32.650;-16.902;2022-12-29T03:31:01;102351.47;;;13.41;40.25
61026;BME280;46911;32.650;-16.902;2022-12-29T03:33:09;102346.81;;;13.45;39.96
61026;BME280;46911;32.650;-16.902;2022-12-29T03:35:15;102333.03;;;13.35;39.69
61026;BME280;46911;32.650;-16.902;2022-12-29T03:37:26;102357.38;;;13.48;39.38
61026;BME280;46911;32.650;-16.902;2022-12-29T03:39:29;102355.72;;;13.45;39.16
61026;BME280;46911;32.650;-16.902;2022-12-29T03:41:33;102358.84;;;13.53;39.66
61026;BME280;46911;32.650;-16.902;2022-12-29T03:43:37;102337.03;;;13.44;39.45
61026;BME280;46911;32.650;-16.902;2022-12-29T03:45:38;102359.91;;;13.51;39.90
61026;BME280;46911;32.650;-16.902;2022-12-29T03:47:39;102364.28;;;13.52;39.99
61026;BME280;46911;32.650;-16.902;2022-12-29T03:49:49;102362.72;;;13.48;39.94
61026;BME280;46911;32.650;-16.902;2022-12-29T03:51:51;102367.50;;;13.59;39.55
61026;BME280;46911;32.650;-16.902;2022-12-29T03:53:52;102372.88;;;13.59;39.39
61026;BME280;46911;32.650;-16.902;2022-12-29T03:55:53;102363.03;;;13.59;39.20
61026;BME280;46911;32.650;-16.902;2022-12-29T03:57:54;102348.81;;;13.57;39.08
61026;BME280;46911;32.650;-16.902;2022-12-29T04:00:11;102363.56;;;13.66;38.83
61026;BME280;46911;32.650;-16.902;2022-12-29T04:02:16;102344.84;;;13.48;38.64
61026;BME280;46911;32.650;-16.902;2022-12-29T04:04:24;102371.31;;;13.54;37.82
61026;BME280;46911;32.650;-16.902;2022-12-29T04:06:27;102374.06;;;13.53;37.24
61026;BME280;46911;32.650;-16.902;2022-12-29T04:08:37;102369.25;;;13.60;36.51
61026;BME280;46911;32.650;-16.902;2022-12-29T04:10:42;102379.88;;;13.61;36.53
61026;BME280;46911;32.650;-16.902;2022-12-29T04:12:49;102348.47;;;13.47;37.64
61026;BME280;46911;32.650;-16.902;2022-12-29T04:14:51;102356.50;;;13.47;37.41
61026;BME280;46911;32.650;-16.902;2022-12-29T04:16:54;102360.75;;;13.51;36.79
61026;BME280;46911;32.650;-16.902;2022-12-29T04:18:58;102339.72;;;13.44;36.85
61026;BME280;46911;32.650;-16.902;2022-12-29T04:21:01;102358.94;;;13.52;37.28
61026;BME280;46911;32.650;-16.902;2022-12-29T04:23:08;102359.91;;;13.51;37.13
61026;BME280;46911;32.650;-16.902;2022-12-29T04:25:11;102344.13;;;13.45;36.92
61026;BME280;46911;32.650;-16.902;2022-12-29T04:27:15;102341.38;;;13.46;36.74
61026;BME280;46911;32.650;-16.902;2022-12-29T04:29:39;102332.63;;;13.43;37.11
61026;BME280;46911;32.650;-16.902;2022-12-29T04:31:50;102348.81;;;13.57;37.37
61026;BME280;46911;32.650;-16.902;2022-12-29T04:33:52;102350.78;;;13.53;37.60
61026;BME280;46911;32.650;-16.902;2022-12-29T04:35:54;102344.94;;;13.63;37.37
61026;BME280;46911;32.650;-16.902;2022-12-29T04:37:58;102347.63;;;13.63;36.83
61026;BME280;46911;32.650;-16.902;2022-12-29T04:39:59;102335.34;;;13.59;36.77
61026;BME280;46911;32.650;-16.902;2022-12-29T04:42:00;102328.59;;;13.51;36.82
61026;BME280;46911;32.650;-16.902;2022-12-29T04:44:06;102351.59;;;13.55;36.57
61026;BME280;46911;32.650;-16.902;2022-12-29T04:46:28;102328.69;;;13.50;36.38
61026;BME280;46911;32.650;-16.902;2022-12-29T04:48:37;102332.38;;;13.47;36.25
61026;BME280;46911;32.650;-16.902;2022-12-29T04:51:03;102328.38;;;13.38;36.45
61026;BME280;46911;32.650;-16.902;2022-12-29T04:53:10;102328.22;;;13.42;36.45
61026;BME280;46911;32.650;-16.902;2022-12-29T04:55:11;102336.00;;;13.46;36.32
61026;BME280;46911;32.650;-16.902;2022-12-29T04:57:14;102327.66;;;13.35;36.45
61026;BME280;46911;32.650;-16.902;2022-12-29T04:59:20;102350.44;;;13.44;36.17
61026;BME280;46911;32.650;-16.902;2022-12-29T05:01:27;102344.13;;;13.45;35.62
61026;BME280;46911;32.650;-16.902;2022-12-29T05:03:31;102362.50;;;13.52;35.36
61026;BME280;46911;32.650;-16.902;2022-12-29T05:05:32;102363.34;;;13.53;35.23
61026;BME280;46911;32.650;-16.902;2022-12-29T05:07:33;102365.41;;;13.48;35.37
61026;BME280;46911;32.650;-16.902;2022-12-29T05:09:35;102364.63;;;13.46;35.25
61026;BME280;46911;32.650;-16.902;2022-12-29T05:11:36;102363.06;;;13.42;35.50
61026;BME280;46911;32.650;-16.902;2022-12-29T05:13:37;102354.47;;;13.35;36.05
61026;BME280;46911;32.650;-16.902;2022-12-29T05:15:41;102363.06;;;13.42;36.55
61026;BME280;46911;32.650;-16.902;2022-12-29T05:17:49;102349.81;;;13.38;36.43
61026;BME280;46911;32.650;-16.902;2022-12-29T05:19:50;102364.69;;;13.62;35.44
61026;BME280;46911;32.650;-16.902;2022-12-29T05:21:52;102351.84;;;13.51;35.29
61026;BME280;46911;32.650;-16.902;2022-12-29T05:23:55;102362.31;;;13.55;35.63
61026;BME280;46911;32.650;-16.902;2022-12-29T05:25:58;102346.03;;;13.43;36.05
61026;BME280;46911;32.650;-16.902;2022-12-29T05:28:20;102362.81;;;13.46;36.44
61026;BME280;46911;32.650;-16.902;2022-12-29T05:30:31;102356.25;;;13.34;36.98
61026;BME280;46911;32.650;-16.902;2022-12-29T05:32:32;102349.41;;;13.29;37.71
61026;BME280;46911;32.650;-16.902;2022-12-29T05:34:33;102355.50;;;13.32;37.75
61026;BME280;46911;32.650;-16.902;2022-12-29T05:36:37;102371.19;;;13.40;37.84
61026;BME280;46911;32.650;-16.902;2022-12-29T05:38:39;102367.41;;;13.44;37.88
61026;BME280;46911;32.650;-16.902;2022-12-29T05:40:40;102345.88;;;13.28;37.70
61026;BME280;46911;32.650;-16.902;2022-12-29T05:42:53;102364.03;;;13.41;37.15
61026;BME280;46911;32.650;-16.902;2022-12-29T05:45:13;102364.78;;;13.43;36.88
61026;BME280;46911;32.650;-16.902;2022-12-29T05:47:32;102370.44;;;13.54;36.60
61026;BME280;46911;32.650;-16.902;2022-12-29T05:49:43;102364.63;;;13.46;36.60
61026;BME280;46911;32.650;-16.902;2022-12-29T05:52:14;102363.66;;;13.47;36.23
61026;BME280;46911;32.650;-16.902;2022-12-29T05:54:15;102366.28;;;13.48;35.98
61026;BME280;46911;32.650;-16.902;2022-12-29T05:56:16;102372.25;;;13.53;35.51
61026;BME280;46911;32.650;-16.902;2022-12-29T05:58:20;102368.72;;;13.53;34.91
61026;BME280;46911;32.650;-16.902;2022-12-29T06:00:23;102366.28;;;13.48;35.04
61026;BME280;46911;32.650;-16.902;2022-12-29T06:02:28;102359.38;;;13.44;34.91
61026;BME280;46911;32.650;-16.902;2022-12-29T06:04:31;102361.50;;;13.37;34.80
61026;BME280;46911;32.650;-16.902;2022-12-29T06:06:32;102349.41;;;13.29;34.67
61026;BME280;46911;32.650;-16.902;2022-12-29T06:08:33;102358.94;;;13.34;34.24
61026;BME280;46911;32.650;-16.902;2022-12-29T06:10:34;102363.69;;;13.29;34.44
61026;BME280;46911;32.650;-16.902;2022-12-29T06:12:42;102350.00;;;13.18;34.51
61026;BME280;46911;32.650;-16.902;2022-12-29T06:14:43;102349.38;;;13.13;34.62
61026;BME280;46911;32.650;-16.902;2022-12-29T06:16:46;102367.63;;;13.22;34.39
61026;BME280;46911;32.650;-16.902;2022-12-29T06:18:47;102360.72;;;13.18;34.48
61026;BME280;46911;32.650;-16.902;2022-12-29T06:20:50;102371.25;;;13.21;34.76
61026;BME280;46911;32.650;-16.902;2022-12-29T06:22:55;102374.03;;;13.19;35.02
61026;BME280;46911;32.650;-16.902;2022-12-29T06:24:57;102364.59;;;13.12;35.10
61026;BME280;46911;32.650;-16.902;2022-12-29T06:26:58;102368.03;;;13.14;35.13
61026;BME280;46911;32.650;-16.902;2022-12-29T06:29:03;102361.09;;;13.10;35.45
61026;BME280;46911;32.650;-16.902;2022-12-29T06:31:10;102362.63;;;12.98;36.13
61026;BME280;46911;32.650;-16.902;2022-12-29T06:33:14;102374.69;;;13.07;36.67
61026;BME280;46911;32.650;-16.902;2022-12-29T06:35:15;102368.44;;;13.06;37.11
61026;BME280;46911;32.650;-16.902;2022-12-29T06:37:21;102362.63;;;12.98;36.96
61026;BME280;46911;32.650;-16.902;2022-12-29T06:39:22;102380.13;;;13.05;36.90
61026;BME280;46911;32.650;-16.902;2022-12-29T06:41:34;102343.03;;;12.80;36.76
61026;BME280;46911;32.650;-16.902;2022-12-29T06:44:04;102374.34;;;12.96;36.53
61026;BME280;46911;32.650;-16.902;2022-12-29T06:46:23;102379.16;;;13.06;36.28
61026;BME280;46911;32.650;-16.902;2022-12-29T06:48:24;102347.91;;;12.89;36.28
61026;BME280;46911;32.650;-16.902;2022-12-29T06:50:25;102355.84;;;13.09;36.14
61026;BME280;46911;32.650;-16.902;2022-12-29T06:52:28;102388.81;;;13.27;36.29
61026;BME280;46911;32.650;-16.902;2022-12-29T06:54:33;102379.13;;;13.24;36.65
61026;BME280;46911;32.650;-16.902;2022-12-29T06:56:34;102365.28;;;13.16;36.40
61026;BME280;46911;32.650;-16.902;2022-12-29T06:58:37;102366.28;;;13.13;36.39
61026;BME280;46911;32.650;-16.902;2022-12-29T07:00:38;102369.28;;;13.25;35.87
61026;BME280;46911;32.650;-16.902;2022-12-29T07:02:41;102369.47;;;13.21;36.22
61026;BME280;46911;32.650;-16.902;2022-12-29T07:04:42;102382.44;;;13.29;36.17
61026;BME280;46911;32.650;-16.902;2022-12-29T07:06:43;102387.78;;;13.29;36.14
61026;BME280;46911;32.650;-16.902;2022-12-29T07:08:44;102388.78;;;13.28;36.45
61026;BME280;46911;32.650;-16.902;2022-12-29T07:10:46;102393.31;;;13.26;36.64
61026;BME280;46911;32.650;-16.902;2022-12-29T07:12:46;102387.03;;;13.27;37.01
61026;BME280;46911;32.650;-16.902;2022-12-29T07:14:47;102393.41;;;13.25;36.93
61026;BME280;46911;32.650;-16.902;2022-12-29T07:16:51;102386.56;;;13.19;37.09
61026;BME280;46911;32.650;-16.902;2022-12-29T07:18:51;102393.25;;;13.28;36.63
61026;BME280;46911;32.650;-16.902;2022-12-29T07:20:52;102398.69;;;13.26;37.18
61026;BME280;46911;32.650;-16.902;2022-12-29T07:22:58;102394.13;;;13.28;37.01
61026;BME280;46911;32.650;-16.902;2022-12-29T07:25:01;102404.84;;;13.28;37.37
61026;BME280;46911;32.650;-16.902;2022-12-29T07:27:04;102375.91;;;13.17;37.24
61026;BME280;46911;32.650;-16.902;2022-12-29T07:29:05;102381.03;;;13.22;37.11
61026;BME280;46911;32.650;-16.902;2022-12-29T07:31:16;102384.50;;;13.24;37.14
61026;BME280;46911;32.650;-16.902;2022-12-29T07:33:18;102393.31;;;13.26;37.27
61026;BME280;46911;32.650;-16.902;2022-12-29T07:35:22;102378.59;;;13.17;37.38
61026;BME280;46911;32.650;-16.902;2022-12-29T07:37:23;102397.97;;;13.22;37.50
61026;BME280;46911;32.650;-16.902;2022-12-29T07:39:23;102375.59;;;13.23;37.52
61026;BME280;46911;32.650;-16.902;2022-12-29T07:41:24;102379.13;;;13.24;37.40
61026;BME280;46911;32.650;-16.902;2022-12-29T07:43:30;102383.41;;;13.28;37.61
61026;BME280;46911;32.650;-16.902;2022-12-29T07:45:57;102396.94;;;13.25;37.50
61026;BME280;46911;32.650;-16.902;2022-12-29T07:47:58;102394.34;;;13.23;37.39
61026;BME280;46911;32.650;-16.902;2022-12-29T07:50:03;102389.25;;;13.36;37.20
61026;BME280;46911;32.650;-16.902;2022-12-29T07:52:09;102383.41;;;13.28;37.33
61026;BME280;46911;32.650;-16.902;2022-12-29T07:54:10;102399.31;;;13.31;37.46
61026;BME280;46911;32.650;-16.902;2022-12-29T07:56:16;102410.03;;;13.31;37.63
61026;BME280;46911;32.650;-16.902;2022-12-29T07:58:17;102400.50;;;13.26;37.96
61026;BME280;46911;32.650;-16.902;2022-12-29T08:00:20;102412.72;;;13.31;38.63
61026;BME280;46911;32.650;-16.902;2022-12-29T08:02:21;102393.16;;;13.29;38.59
61026;BME280;46911;32.650;-16.902;2022-12-29T08:04:22;102397.56;;;13.30;38.45
61026;BME280;46911;32.650;-16.902;2022-12-29T08:06:23;102412.25;;;13.41;38.49
61026;BME280;46911;32.650;-16.902;2022-12-29T08:08:26;102417.44;;;13.44;38.42
61026;BME280;46911;32.650;-16.902;2022-12-29T08:10:26;102410.97;;;13.48;38.18
61026;BME280;46911;32.650;-16.902;2022-12-29T08:12:27;102404.31;;;13.39;38.31
61026;BME280;46911;32.650;-16.902;2022-12-29T08:14:28;102415.56;;;13.46;38.54
61026;BME280;46911;32.650;-16.902;2022-12-29T08:16:34;102398.38;;;13.32;38.86
61026;BME280;46911;32.650;-16.902;2022-12-29T08:18:37;102406.19;;;13.37;39.13
61026;BME280;46911;32.650;-16.902;2022-12-29T08:20:41;102409.66;;;13.39;38.80
61026;BME280;46911;32.650;-16.902;2022-12-29T08:22:41;102404.50;;;13.34;38.67
61026;BME280;46911;32.650;-16.902;2022-12-29T08:24:45;102409.72;;;13.55;38.38
61026;BME280;46911;32.650;-16.902;2022-12-29T08:26:45;102414.09;;;13.56;38.21
61026;BME280;46911;32.650;-16.902;2022-12-29T08:28:52;102423.03;;;13.56;38.02
61026;BME280;46911;32.650;-16.902;2022-12-29T08:30:58;102423.03;;;13.56;37.90
61026;BME280;46911;32.650;-16.902;2022-12-29T08:33:02;102420.50;;;13.53;38.04
61026;BME280;46911;32.650;-16.902;2022-12-29T08:35:06;102410.75;;;13.52;38.16
61026;BME280;46911;32.650;-16.902;2022-12-29T08:37:10;102424.81;;;13.73;38.55
61026;BME280;46911;32.650;-16.902;2022-12-29T08:39:11;102411.47;;;13.72;38.74
61026;BME280;46911;32.650;-16.902;2022-12-29T08:41:12;102425.88;;;13.87;38.99
61026;BME280;46911;32.650;-16.902;2022-12-29T08:43:15;102428.94;;;13.97;39.31
61026;BME280;46911;32.650;-16.902;2022-12-29T08:45:18;102420.53;;;13.87;39.03
61026;BME280;46911;32.650;-16.902;2022-12-29T08:47:21;102406.81;;;13.76;38.78
61026;BME280;46911;32.650;-16.902;2022-12-29T08:49:24;102438.78;;;13.96;39.03
61026;BME280;46911;32.650;-16.902;2022-12-29T08:51:28;102429.44;;;14.03;39.38
61026;BME280;46911;32.650;-16.902;2022-12-29T08:53:29;102439.16;;;14.06;39.95
61026;BME280;46911;32.650;-16.902;2022-12-29T08:55:30;102436.56;;;14.04;40.07
61026;BME280;46911;32.650;-16.902;2022-12-29T08:57:31;102432.75;;;14.09;40.32
61026;BME280;46911;32.650;-16.902;2022-12-29T09:00:02;102446.59;;;14.17;40.30
61026;BME280;46911;32.650;-16.902;2022-12-29T09:02:03;102440.72;;;14.26;40.42
61026;BME280;46911;32.650;-16.902;2022-12-29T09:04:04;102442.28;;;14.30;40.35
61026;BME280;46911;32.650;-16.902;2022-12-29T09:06:05;102435.78;;;14.34;40.42
61026;BME280;46911;32.650;-16.902;2022-12-29T09:08:06;102411.44;;;14.21;40.50
61026;BME280;46911;32.650;-16.902;2022-12-29T09:10:09;102440.34;;;14.48;40.34
61026;BME280;46911;32.650;-16.902;2022-12-29T09:12:10;102447.03;;;14.57;39.98
61026;BME280;46911;32.650;-16.902;2022-12-29T09:14:11;102453.88;;;14.63;39.69
61026;BME280;46911;32.650;-16.902;2022-12-29T09:16:12;102459.88;;;14.68;39.60
61026;BME280;46911;32.650;-16.902;2022-12-29T09:18:14;102429.03;;;14.59;39.64
61026;BME280;46911;32.650;-16.902;2022-12-29T09:20:19;102464.38;;;14.83;39.89
61026;BME280;46911;32.650;-16.902;2022-12-29T09:22:25;102458.63;;;14.89;40.32
61026;BME280;46911;32.650;-16.902;2022-12-29T09:24:26;102473.59;;;14.94;40.77
61026;BME280;46911;32.650;-16.902;2022-12-29T09:26:29;102463.66;;;14.96;41.10
61026;BME280;46911;32.650;-16.902;2022-12-29T09:28:32;102457.63;;;15.06;41.37
61026;BME280;46911;32.650;-16.902;2022-12-29T09:30:33;102456.50;;;15.11;41.48
61026;BME280;46911;32.650;-16.902;2022-12-29T09:32:35;102469.38;;;15.20;41.77
61026;BME280;46911;32.650;-16.902;2022-12-29T09:34:36;102467.00;;;15.30;41.79
61026;BME280;46911;32.650;-16.902;2022-12-29T09:36:36;102441.75;;;15.18;41.86
61026;BME280;46911;32.650;-16.902;2022-12-29T09:38:37;102479.63;;;15.44;41.80
61026;BME280;46911;32.650;-16.902;2022-12-29T09:40:39;102471.38;;;15.47;41.74
61026;BME280;46911;32.650;-16.902;2022-12-29T09:43:05;102476.69;;;15.63;41.92
61026;BME280;46911;32.650;-16.902;2022-12-29T09:45:18;102483.03;;;15.76;42.12
61026;BME280;46911;32.650;-16.902;2022-12-29T09:47:28;102487.63;;;15.90;42.38
61026;BME280;46911;32.650;-16.902;2022-12-29T09:49:46;102476.91;;;16.03;42.33
61026;BME280;46911;32.650;-16.902;2022-12-29T09:51:53;102487.09;;;16.27;42.29
61026;BME280;46911;32.650;-16.902;2022-12-29T09:54:00;102490.16;;;16.49;42.49
61026;BME280;46911;32.650;-16.902;2022-12-29T09:56:05;102485.94;;;16.72;42.37
61026;BME280;46911;32.650;-16.902;2022-12-29T09:58:34;102483.56;;;16.95;42.07
61026;BME280;46911;32.650;-16.902;2022-12-29T10:00:50;102486.44;;;17.19;41.86
61026;BME280;46911;32.650;-16.902;2022-12-29T10:02:57;102488.03;;;17.49;41.32
61026;BME280;46911;32.650;-16.902;2022-12-29T10:05:04;102493.31;;;18.15;40.95
61026;BME280;46911;32.650;-16.902;2022-12-29T10:07:25;102503.44;;;19.70;39.35
61026;BME280;46911;32.650;-16.902;2022-12-29T10:09:46;102500.91;;;21.45;36.48
61026;BME280;46911;32.650;-16.902;2022-12-29T10:12:16;102501.38;;;23.23;33.42
61026;BME280;46911;32.650;-16.902;2022-12-29T10:14:44;102503.16;;;24.93;31.14
61026;BME280;46911;32.650;-16.902;2022-12-29T10:17:01;102499.88;;;26.38;29.12
61026;BME280;46911;32.650;-16.902;2022-12-29T10:25:45;102506.81;;;30.45;24.79
61026;BME280;46911;32.650;-16.902;2022-12-29T10:27:50;102507.41;;;31.20;23.52
61026;BME280;46911;32.650;-16.902;2022-12-29T10:29:55;102508.72;;;31.74;23.34
61026;BME280;46911;32.650;-16.902;2022-12-29T10:32:05;102505.31;;;32.14;22.82
61026;BME280;46911;32.650;-16.902;2022-12-29T10:34:21;102515.91;;;32.65;22.30
61026;BME280;46911;32.650;-16.902;2022-12-29T10:38:42;102503.69;;;33.28;22.36
61026;BME280;46911;32.650;-16.902;2022-12-29T10:41:16;102513.50;;;34.23;21.09
61026;BME280;46911;32.650;-16.902;2022-12-29T10:43:28;102509.56;;;34.51;21.01
61026;BME280;46911;32.650;-16.902;2022-12-29T10:45:33;102515.94;;;34.90;20.85
61026;BME280;46911;32.650;-16.902;2022-12-29T10:47:47;102519.25;;;35.31;21.19
61026;BME280;46911;32.650;-16.902;2022-12-29T10:49:54;102515.97;;;35.84;21.74
61026;BME280;46911;32.650;-16.902;2022-12-29T10:52:02;102512.69;;;36.25;21.74
61026;BME280;46911;32.650;-16.902;2022-12-29T10:54:36;102519.34;;;36.05;24.31
61026;BME280;46911;32.650;-16.902;2022-12-29T10:56:42;102516.72;;;35.92;24.90
61026;BME280;46911;32.650;-16.902;2022-12-29T10:58:48;102520.88;;;35.82;25.85
61026;BME280;46911;32.650;-16.902;2022-12-29T11:00:53;102528.63;;;35.30;27.51
61026;BME280;46911;32.650;-16.902;2022-12-29T11:05:23;102518.75;;;31.32;33.20
61026;BME280;46911;32.650;-16.902;2022-12-29T11:07:31;102524.09;;;28.48;39.19
61026;BME280;46911;32.650;-16.902;2022-12-29T11:09:36;102526.59;;;27.29;41.98
61026;BME280;46911;32.650;-16.902;2022-12-29T11:11:38;102521.56;;;27.90;40.55
61026;BME280;46911;32.650;-16.902;2022-12-29T11:13:55;102519.00;;;26.81;43.02
61026;BME280;46911;32.650;-16.902;2022-12-29T11:15:56;102515.09;;;26.92;42.73
61026;BME280;46911;32.650;-16.902;2022-12-29T11:18:00;102503.72;;;26.11;44.88
61026;BME280;46911;32.650;-16.902;2022-12-29T11:20:24;102518.16;;;26.30;44.48
61026;BME280;46911;32.650;-16.902;2022-12-29T11:22:30;102520.56;;;26.33;44.50
61026;BME280;46911;32.650;-16.902;2022-12-29T11:24:45;102508.16;;;27.95;40.80
61026;BME280;46911;32.650;-16.902;2022-12-29T11:26:49;102499.91;;;29.44;38.03
61026;BME280;46911;32.650;-16.902;2022-12-29T11:29:14;102507.69;;;30.30;35.68
61026;BME280;46911;32.650;-16.902;2022-12-29T11:31:17;102498.94;;;28.67;39.29
61026;BME280;46911;32.650;-16.902;2022-12-29T11:33:18;102517.81;;;26.84;43.10
61026;BME280;46911;32.650;-16.902;2022-12-29T11:35:49;102513.34;;;26.83;43.55
61026;BME280;46911;32.650;-16.902;2022-12-29T11:37:58;102507.22;;;28.91;39.14